Tapirai, Brazil
Current Conditions -  °F | °C
As of 5:00 PM on Friday 24 Oct 2014 (Local Time) from SBSP Reporting Station
Haze Haze  
Wind Chill: 68°   Ceiling: 700
Heat Index: 68°   Visibility: 3mi
Dew Point: 61°   Wind: 16mph
Humidity: 78%   Direction: 180°S
Pressure: 30"   Gusts: NA
Location:  23.97°S, 47.51°W
Report Text: SBSP 241900Z 18014KT 5000 HZ SCT004 BKN007 20/16 Q1016
Loading
Personal Weather Stations






























Interactive Weather Map
Tropical Storm Tracking
New forecast layout! Learn more

10-Day Weather Forecast

Advertisements
Track Severe Weather on mobile